sensor_id;sensor_type;location;lat;lon;timestamp;temperature;humidity
27697;DHT22;15105;56.514;21.002;2022-07-29T00:00:16;14.40;99.90
27697;DHT22;15105;56.514;21.002;2022-07-29T00:02:43;14.40;99.90
27697;DHT22;15105;56.514;21.002;2022-07-29T00:05:10;14.30;99.90
27697;DHT22;15105;56.514;21.002;2022-07-29T00:07:57;14.30;99.90
27697;DHT22;15105;56.514;21.002;2022-07-29T00:10:24;14.30;99.90
27697;DHT22;15105;56.514;21.002;2022-07-29T00:12:51;14.30;99.90
27697;DHT22;15105;56.514;21.002;2022-07-29T00:15:19;14.40;99.90
27697;DHT22;15105;56.514;21.002;2022-07-29T00:17:46;14.30;99.90
27697;DHT22;15105;56.514;21.002;2022-07-29T00:20:18;14.40;99.90
27697;DHT22;15105;56.514;21.002;2022-07-29T00:22:45;14.40;99.90
27697;DHT22;15105;56.514;21.002;2022-07-29T00:25:13;14.40;99.90
27697;DHT22;15105;56.514;21.002;2022-07-29T00:27:40;14.40;99.90
27697;DHT22;15105;56.514;21.002;2022-07-29T00:30:07;14.40;99.90
27697;DHT22;15105;56.514;21.002;2022-07-29T00:32:35;14.40;99.90
27697;DHT22;15105;56.514;21.002;2022-07-29T00:35:02;14.40;99.90
27697;DHT22;15105;56.514;21.002;2022-07-29T00:37:48;14.40;99.90
27697;DHT22;15105;56.514;21.002;2022-07-29T00:40:15;14.30;99.90
27697;DHT22;15105;56.514;21.002;2022-07-29T00:42:47;14.30;99.90
27697;DHT22;15105;56.514;21.002;2022-07-29T00:45:17;14.30;99.90
27697;DHT22;15105;56.514;21.002;2022-07-29T00:47:45;14.30;99.90
27697;DHT22;15105;56.514;21.002;2022-07-29T00:50:13;14.30;99.90
27697;DHT22;15105;56.514;21.002;2022-07-29T00:52:42;14.20;99.90
27697;DHT22;15105;56.514;21.002;2022-07-29T00:55:12;14.20;99.90
27697;DHT22;15105;56.514;21.002;2022-07-29T00:57:58;14.20;99.90
27697;DHT22;15105;56.514;21.002;2022-07-29T01:00:27;14.20;99.90
27697;DHT22;15105;56.514;21.002;2022-07-29T01:02:54;14.20;99.90
27697;DHT22;15105;56.514;21.002;2022-07-29T01:05:24;14.20;99.90
27697;DHT22;15105;56.514;21.002;2022-07-29T01:08:15;14.20;99.90
27697;DHT22;15105;56.514;21.002;2022-07-29T01:10:41;14.10;99.90
27697;DHT22;15105;56.514;21.002;2022-07-29T01:13:11;14.10;99.90
27697;DHT22;15105;56.514;21.002;2022-07-29T01:15:43;14.10;99.90
27697;DHT22;15105;56.514;21.002;2022-07-29T01:24:11;14.10;99.90
27697;DHT22;15105;56.514;21.002;2022-07-29T01:29:30;14.00;99.90
27697;DHT22;15105;56.514;21.002;2022-07-29T01:32:35;13.90;99.90
27697;DHT22;15105;56.514;21.002;2022-07-29T01:35:22;13.80;99.90
27697;DHT22;15105;56.514;21.002;2022-07-29T01:38:08;13.80;99.90
27697;DHT22;15105;56.514;21.002;2022-07-29T01:40:39;13.80;99.90
27697;DHT22;15105;56.514;21.002;2022-07-29T01:43:12;13.70;99.90
27697;DHT22;15105;56.514;21.002;2022-07-29T01:45:45;13.70;99.90
27697;DHT22;15105;56.514;21.002;2022-07-29T01:48:23;13.70;99.90
27697;DHT22;15105;56.514;21.002;2022-07-29T01:50:58;13.70;99.90
27697;DHT22;15105;56.514;21.002;2022-07-29T01:53:35;13.60;99.90
27697;DHT22;15105;56.514;21.002;2022-07-29T01:56:05;13.60;99.90
27697;DHT22;15105;56.514;21.002;2022-07-29T01:58:35;13.60;99.90
27697;DHT22;15105;56.514;21.002;2022-07-29T02:01:03;13.60;99.90
27697;DHT22;15105;56.514;21.002;2022-07-29T02:03:33;13.60;99.90
27697;DHT22;15105;56.514;21.002;2022-07-29T02:06:03;13.70;99.90
27697;DHT22;15105;56.514;21.002;2022-07-29T02:08:33;13.70;99.90
27697;DHT22;15105;56.514;21.002;2022-07-29T02:11:01;13.60;99.90
27697;DHT22;15105;56.514;21.002;2022-07-29T02:13:31;13.60;99.90
27697;DHT22;15105;56.514;21.002;2022-07-29T02:16:00;13.60;99.90
27697;DHT22;15105;56.514;21.002;2022-07-29T02:18:30;13.50;99.90
27697;DHT22;15105;56.514;21.002;2022-07-29T02:20:59;13.50;99.90
27697;DHT22;15105;56.514;21.002;2022-07-29T02:23:27;13.50;99.90
27697;DHT22;15105;56.514;21.002;2022-07-29T02:25:59;13.40;99.90
27697;DHT22;15105;56.514;21.002;2022-07-29T02:28:27;13.40;99.90
27697;DHT22;15105;56.514;21.002;2022-07-29T02:30:58;13.40;99.90
27697;DHT22;15105;56.514;21.002;2022-07-29T02:33:27;13.40;99.90
27697;DHT22;15105;56.514;21.002;2022-07-29T02:35:54;13.30;99.90
27697;DHT22;15105;56.514;21.002;2022-07-29T02:38:24;13.30;99.90
27697;DHT22;15105;56.514;21.002;2022-07-29T02:41:13;13.30;99.90
27697;DHT22;15105;56.514;21.002;2022-07-29T02:44:05;13.20;99.90
27697;DHT22;15105;56.514;21.002;2022-07-29T02:46:35;13.20;99.90
27697;DHT22;15105;56.514;21.002;2022-07-29T02:49:16;13.20;99.90
27697;DHT22;15105;56.514;21.002;2022-07-29T02:51:51;13.10;99.90
27697;DHT22;15105;56.514;21.002;2022-07-29T02:54:23;13.20;99.90
27697;DHT22;15105;56.514;21.002;2022-07-29T02:56:52;13.20;99.90
27697;DHT22;15105;56.514;21.002;2022-07-29T02:59:24;13.20;99.90
27697;DHT22;15105;56.514;21.002;2022-07-29T03:01:55;13.10;99.90
27697;DHT22;15105;56.514;21.002;2022-07-29T03:04:24;13.10;99.90
27697;DHT22;15105;56.514;21.002;2022-07-29T03:06:53;13.10;99.90
27697;DHT22;15105;56.514;21.002;2022-07-29T03:09:21;13.10;99.90
27697;DHT22;15105;56.514;21.002;2022-07-29T03:11:49;13.10;99.90
27697;DHT22;15105;56.514;21.002;2022-07-29T03:14:20;13.10;99.90
27697;DHT22;15105;56.514;21.002;2022-07-29T03:16:48;13.10;99.90
27697;DHT22;15105;56.514;21.002;2022-07-29T03:19:17;13.20;99.90
27697;DHT22;15105;56.514;21.002;2022-07-29T03:21:44;13.20;99.90
27697;DHT22;15105;56.514;21.002;2022-07-29T03:24:31;13.20;99.90
27697;DHT22;15105;56.514;21.002;2022-07-29T03:26:59;13.20;99.90
27697;DHT22;15105;56.514;21.002;2022-07-29T03:29:26;13.20;99.90
27697;DHT22;15105;56.514;21.002;2022-07-29T03:32:01;13.30;99.90
27697;DHT22;15105;56.514;21.002;2022-07-29T03:34:33;13.30;99.90
27697;DHT22;15105;56.514;21.002;2022-07-29T03:37:00;13.40;99.90
27697;DHT22;15105;56.514;21.002;2022-07-29T03:39:29;13.40;99.90
27697;DHT22;15105;56.514;21.002;2022-07-29T03:42:00;13.40;99.90
27697;DHT22;15105;56.514;21.002;2022-07-29T03:44:27;13.50;99.90
27697;DHT22;15105;56.514;21.002;2022-07-29T03:46:57;13.60;99.90
27697;DHT22;15105;56.514;21.002;2022-07-29T03:49:27;13.70;99.90
27697;DHT22;15105;56.514;21.002;2022-07-29T03:51:56;13.70;99.90
27697;DHT22;15105;56.514;21.002;2022-07-29T03:54:23;13.90;99.90
27697;DHT22;15105;56.514;21.002;2022-07-29T03:56:52;13.90;99.90
27697;DHT22;15105;56.514;21.002;2022-07-29T03:59:20;14.10;99.90
27697;DHT22;15105;56.514;21.002;2022-07-29T04:01:48;14.30;99.90
27697;DHT22;15105;56.514;21.002;2022-07-29T04:04:16;14.70;99.90
27697;DHT22;15105;56.514;21.002;2022-07-29T04:06:45;15.30;99.90
27697;DHT22;15105;56.514;21.002;2022-07-29T04:09:17;16.30;99.90
27697;DHT22;15105;56.514;21.002;2022-07-29T04:11:45;17.30;99.90
27697;DHT22;15105;56.514;21.002;2022-07-29T04:14:30;18.30;99.90
27697;DHT22;15105;56.514;21.002;2022-07-29T04:16:57;19.20;99.90
27697;DHT22;15105;56.514;21.002;2022-07-29T04:19:24;20.00;99.90
27697;DHT22;15105;56.514;21.002;2022-07-29T04:21:51;20.70;99.90
27697;DHT22;15105;56.514;21.002;2022-07-29T04:24:18;20.50;99.90
27697;DHT22;15105;56.514;21.002;2022-07-29T04:26:46;19.90;99.90
27697;DHT22;15105;56.514;21.002;2022-07-29T04:29:13;19.70;99.90
27697;DHT22;15105;56.514;21.002;2022-07-29T04:31:41;19.60;99.90
27697;DHT22;15105;56.514;21.002;2022-07-29T04:34:09;19.40;99.90
27697;DHT22;15105;56.514;21.002;2022-07-29T04:36:37;19.10;99.90
27697;DHT22;15105;56.514;21.002;2022-07-29T04:39:04;19.80;99.90
27697;DHT22;15105;56.514;21.002;2022-07-29T04:41:31;20.60;99.90
27697;DHT22;15105;56.514;21.002;2022-07-29T04:44:00;21.20;99.90
27697;DHT22;15105;56.514;21.002;2022-07-29T04:46:33;21.80;99.90
27697;DHT22;15105;56.514;21.002;2022-07-29T04:49:00;22.40;99.90
27697;DHT22;15105;56.514;21.002;2022-07-29T04:51:28;22.70;99.90
27697;DHT22;15105;56.514;21.002;2022-07-29T04:53:55;23.20;99.90
27697;DHT22;15105;56.514;21.002;2022-07-29T04:56:22;23.40;99.90
27697;DHT22;15105;56.514;21.002;2022-07-29T04:58:49;23.40;99.90
27697;DHT22;15105;56.514;21.002;2022-07-29T05:01:16;23.30;99.90
27697;DHT22;15105;56.514;21.002;2022-07-29T05:03:44;23.40;99.90
27697;DHT22;15105;56.514;21.002;2022-07-29T05:06:15;23.80;99.90
27697;DHT22;15105;56.514;21.002;2022-07-29T05:08:42;24.20;99.90
27697;DHT22;15105;56.514;21.002;2022-07-29T05:11:09;24.50;99.90
27697;DHT22;15105;56.514;21.002;2022-07-29T05:13:48;24.70;99.90
27697;DHT22;15105;56.514;21.002;2022-07-29T05:16:15;24.70;99.90
27697;DHT22;15105;56.514;21.002;2022-07-29T05:18:42;24.40;99.90
27697;DHT22;15105;56.514;21.002;2022-07-29T05:21:09;24.00;99.90
27697;DHT22;15105;56.514;21.002;2022-07-29T05:23:36;23.20;99.90
27697;DHT22;15105;56.514;21.002;2022-07-29T05:26:04;22.40;99.90
27697;DHT22;15105;56.514;21.002;2022-07-29T05:28:34;21.60;99.90
27697;DHT22;15105;56.514;21.002;2022-07-29T05:31:04;21.00;99.90
27697;DHT22;15105;56.514;21.002;2022-07-29T05:33:31;20.50;99.90
27697;DHT22;15105;56.514;21.002;2022-07-29T05:36:05;20.10;99.90
27697;DHT22;15105;56.514;21.002;2022-07-29T05:38:35;19.60;99.90
27697;DHT22;15105;56.514;21.002;2022-07-29T05:41:03;19.30;99.90
27697;DHT22;15105;56.514;21.002;2022-07-29T05:43:30;19.10;99.90
27697;DHT22;15105;56.514;21.002;2022-07-29T05:46:00;18.90;99.90
27697;DHT22;15105;56.514;21.002;2022-07-29T05:48:27;18.90;99.90
27697;DHT22;15105;56.514;21.002;2022-07-29T05:50:58;18.90;99.90
27697;DHT22;15105;56.514;21.002;2022-07-29T05:53:28;18.90;99.90
27697;DHT22;15105;56.514;21.002;2022-07-29T05:55:55;18.70;99.90
27697;DHT22;15105;56.514;21.002;2022-07-29T05:58:22;18.50;99.90
27697;DHT22;15105;56.514;21.002;2022-07-29T06:00:49;18.50;99.90
27697;DHT22;15105;56.514;21.002;2022-07-29T06:03:16;18.50;99.90
27697;DHT22;15105;56.514;21.002;2022-07-29T06:05:43;18.50;99.90
27697;DHT22;15105;56.514;21.002;2022-07-29T06:08:11;18.60;99.90
27697;DHT22;15105;56.514;21.002;2022-07-29T06:10:51;18.50;99.90
27697;DHT22;15105;56.514;21.002;2022-07-29T06:13:18;18.50;99.90
27697;DHT22;15105;56.514;21.002;2022-07-29T06:15:46;18.40;99.90
27697;DHT22;15105;56.514;21.002;2022-07-29T06:18:17;18.20;99.90
27697;DHT22;15105;56.514;21.002;2022-07-29T06:20:45;18.10;99.90
27697;DHT22;15105;56.514;21.002;2022-07-29T06:23:17;18.10;99.90
27697;DHT22;15105;56.514;21.002;2022-07-29T06:25:45;18.10;99.90
27697;DHT22;15105;56.514;21.002;2022-07-29T06:28:32;18.10;99.90
27697;DHT22;15105;56.514;21.002;2022-07-29T06:30:59;18.00;99.90
27697;DHT22;15105;56.514;21.002;2022-07-29T06:33:26;18.00;99.90
27697;DHT22;15105;56.514;21.002;2022-07-29T06:35:53;18.00;99.90
27697;DHT22;15105;56.514;21.002;2022-07-29T06:38:21;17.90;99.90
27697;DHT22;15105;56.514;21.002;2022-07-29T06:40:58;17.90;99.90
27697;DHT22;15105;56.514;21.002;2022-07-29T06:43:33;17.80;99.90
27697;DHT22;15105;56.514;21.002;2022-07-29T06:46:18;17.70;99.90
27697;DHT22;15105;56.514;21.002;2022-07-29T06:48:49;17.80;99.90
27697;DHT22;15105;56.514;21.002;2022-07-29T06:51:17;17.70;99.90
27697;DHT22;15105;56.514;21.002;2022-07-29T06:53:52;17.70;99.90
27697;DHT22;15105;56.514;21.002;2022-07-29T06:56:29;17.70;99.90
27697;DHT22;15105;56.514;21.002;2022-07-29T06:58:57;17.70;99.90
27697;DHT22;15105;56.514;21.002;2022-07-29T07:01:24;17.70;99.90
27697;DHT22;15105;56.514;21.002;2022-07-29T07:03:51;17.80;99.90
27697;DHT22;15105;56.514;21.002;2022-07-29T07:06:19;17.90;99.90
27697;DHT22;15105;56.514;21.002;2022-07-29T07:08:46;18.00;99.90
27697;DHT22;15105;56.514;21.002;2022-07-29T07:11:13;18.00;99.90
27697;DHT22;15105;56.514;21.002;2022-07-29T07:13:40;18.00;99.90
27697;DHT22;15105;56.514;21.002;2022-07-29T07:16:07;18.10;99.90
27697;DHT22;15105;56.514;21.002;2022-07-29T07:18:35;18.10;99.90
27697;DHT22;15105;56.514;21.002;2022-07-29T07:21:02;18.10;99.90
27697;DHT22;15105;56.514;21.002;2022-07-29T07:23:29;18.20;99.90
27697;DHT22;15105;56.514;21.002;2022-07-29T07:25:56;18.30;99.90
27697;DHT22;15105;56.514;21.002;2022-07-29T07:28:23;18.50;99.90
27697;DHT22;15105;56.514;21.002;2022-07-29T07:30:51;18.50;99.90
27697;DHT22;15105;56.514;21.002;2022-07-29T07:33:18;18.70;99.90
27697;DHT22;15105;56.514;21.002;2022-07-29T07:35:46;18.70;99.90
27697;DHT22;15105;56.514;21.002;2022-07-29T07:38:19;18.70;99.90
27697;DHT22;15105;56.514;21.002;2022-07-29T07:40:47;18.80;99.90
27697;DHT22;15105;56.514;21.002;2022-07-29T07:43:14;18.90;99.90
27697;DHT22;15105;56.514;21.002;2022-07-29T07:45:41;19.00;99.90
27697;DHT22;15105;56.514;21.002;2022-07-29T07:48:08;19.20;99.90
27697;DHT22;15105;56.514;21.002;2022-07-29T07:50:37;19.10;99.90
27697;DHT22;15105;56.514;21.002;2022-07-29T07:53:04;19.30;99.90
27697;DHT22;15105;56.514;21.002;2022-07-29T07:55:31;19.40;99.90
27697;DHT22;15105;56.514;21.002;2022-07-29T07:58:18;19.60;99.90
27697;DHT22;15105;56.514;21.002;2022-07-29T08:00:50;19.70;99.90
27697;DHT22;15105;56.514;21.002;2022-07-29T08:06:22;19.80;99.90
27697;DHT22;15105;56.514;21.002;2022-07-29T08:08:51;19.90;99.90
27697;DHT22;15105;56.514;21.002;2022-07-29T08:11:22;19.90;99.90
27697;DHT22;15105;56.514;21.002;2022-07-29T08:13:49;20.00;99.90
27697;DHT22;15105;56.514;21.002;2022-07-29T08:16:16;20.10;99.90
27697;DHT22;15105;56.514;21.002;2022-07-29T08:18:44;20.10;99.90
27697;DHT22;15105;56.514;21.002;2022-07-29T08:23:52;20.30;99.90
27697;DHT22;15105;56.514;21.002;2022-07-29T08:26:27;20.40;99.90
27697;DHT22;15105;56.514;21.002;2022-07-29T08:28:54;20.40;99.90
27697;DHT22;15105;56.514;21.002;2022-07-29T08:31:21;20.70;99.90
27697;DHT22;15105;56.514;21.002;2022-07-29T08:33:48;20.70;99.90
27697;DHT22;15105;56.514;21.002;2022-07-29T08:36:15;20.60;99.90
27697;DHT22;15105;56.514;21.002;2022-07-29T08:41:38;20.50;99.90
27697;DHT22;15105;56.514;21.002;2022-07-29T08:44:05;20.40;99.90
27697;DHT22;15105;56.514;21.002;2022-07-29T08:46:33;20.60;99.90
27697;DHT22;15105;56.514;21.002;2022-07-29T08:49:01;20.70;99.90
27697;DHT22;15105;56.514;21.002;2022-07-29T08:51:29;20.90;99.90
27697;DHT22;15105;56.514;21.002;2022-07-29T08:53:57;20.80;99.90
27697;DHT22;15105;56.514;21.002;2022-07-29T08:56:24;20.80;99.90
27697;DHT22;15105;56.514;21.002;2022-07-29T08:58:52;20.80;99.90
27697;DHT22;15105;56.514;21.002;2022-07-29T09:01:26;20.90;99.90
27697;DHT22;15105;56.514;21.002;2022-07-29T09:04:11;20.90;99.90
27697;DHT22;15105;56.514;21.002;2022-07-29T09:06:44;20.90;99.90
27697;DHT22;15105;56.514;21.002;2022-07-29T09:09:13;20.90;99.90
27697;DHT22;15105;56.514;21.002;2022-07-29T09:11:41;20.90;99.90
27697;DHT22;15105;56.514;21.002;2022-07-29T09:14:11;20.90;99.90
27697;DHT22;15105;56.514;21.002;2022-07-29T09:17:08;20.90;99.90
27697;DHT22;15105;56.514;21.002;2022-07-29T09:19:37;20.90;99.90
27697;DHT22;15105;56.514;21.002;2022-07-29T09:22:11;21.00;99.90
27697;DHT22;15105;56.514;21.002;2022-07-29T09:24:46;21.00;99.90
27697;DHT22;15105;56.514;21.002;2022-07-29T09:27:19;21.00;99.90
27697;DHT22;15105;56.514;21.002;2022-07-29T09:29:59;21.10;99.90
27697;DHT22;15105;56.514;21.002;2022-07-29T09:32:27;21.20;99.90
27697;DHT22;15105;56.514;21.002;2022-07-29T09:35:17;21.20;99.90
27697;DHT22;15105;56.514;21.002;2022-07-29T09:37:46;21.30;99.90
27697;DHT22;15105;56.514;21.002;2022-07-29T09:40:19;21.10;99.90
27697;DHT22;15105;56.514;21.002;2022-07-29T09:42:46;21.00;99.90
27697;DHT22;15105;56.514;21.002;2022-07-29T09:45:34;20.80;99.90
27697;DHT22;15105;56.514;21.002;2022-07-29T09:48:22;20.80;99.90
27697;DHT22;15105;56.514;21.002;2022-07-29T09:50:50;20.80;99.90
27697;DHT22;15105;56.514;21.002;2022-07-29T09:53:36;20.90;99.90
27697;DHT22;15105;56.514;21.002;2022-07-29T09:56:05;21.00;99.90
27697;DHT22;15105;56.514;21.002;2022-07-29T09:58:32;21.10;99.90
27697;DHT22;15105;56.514;21.002;2022-07-29T10:01:07;21.00;99.90
27697;DHT22;15105;56.514;21.002;2022-07-29T10:03:52;21.10;99.90
27697;DHT22;15105;56.514;21.002;2022-07-29T10:06:19;21.00;99.90
27697;DHT22;15105;56.514;21.002;2022-07-29T10:08:46;21.00;99.90
27697;DHT22;15105;56.514;21.002;2022-07-29T10:11:19;20.90;99.90
27697;DHT22;15105;56.514;21.002;2022-07-29T10:13:47;21.00;99.90
27697;DHT22;15105;56.514;21.002;2022-07-29T10:19:14;21.00;99.90
27697;DHT22;15105;56.514;21.002;2022-07-29T10:21:41;20.90;99.90
27697;DHT22;15105;56.514;21.002;2022-07-29T10:24:12;20.80;99.90
27697;DHT22;15105;56.514;21.002;2022-07-29T10:26:40;20.60;99.90
27697;DHT22;15105;56.514;21.002;2022-07-29T10:29:08;20.60;99.90
27697;DHT22;15105;56.514;21.002;2022-07-29T10:40:22;20.60;99.90
27697;DHT22;15105;56.514;21.002;2022-07-29T10:43:27;20.70;99.90
27697;DHT22;15105;56.514;21.002;2022-07-29T10:45:59;20.90;99.90
27697;DHT22;15105;56.514;21.002;2022-07-29T10:48:27;20.80;99.90
27697;DHT22;15105;56.514;21.002;2022-07-29T10:50:56;20.90;99.90
27697;DHT22;15105;56.514;21.002;2022-07-29T10:53:46;21.00;99.90
27697;DHT22;15105;56.514;21.002;2022-07-29T10:56:33;21.10;99.90
27697;DHT22;15105;56.514;21.002;2022-07-29T11:01:52;21.20;99.90
27697;DHT22;15105;56.514;21.002;2022-07-29T11:07:16;21.00;99.90
27697;DHT22;15105;56.514;21.002;2022-07-29T11:09:43;20.90;99.90
27697;DHT22;15105;56.514;21.002;2022-07-29T11:15:10;20.80;99.90
27697;DHT22;15105;56.514;21.002;2022-07-29T11:23:29;20.80;99.90
27697;DHT22;15105;56.514;21.002;2022-07-29T11:26:20;20.80;99.90
27697;DHT22;15105;56.514;21.002;2022-07-29T11:34:21;20.90;99.90
27697;DHT22;15105;56.514;21.002;2022-07-29T11:45:05;20.80;99.90
27697;DHT22;15105;56.514;21.002;2022-07-29T11:47:55;20.70;99.90
27697;DHT22;15105;56.514;21.002;2022-07-29T11:50:46;20.70;99.90
27697;DHT22;15105;56.514;21.002;2022-07-29T11:53:14;20.80;99.90
27697;DHT22;15105;56.514;21.002;2022-07-29T11:55:42;20.80;99.90
27697;DHT22;15105;56.514;21.002;2022-07-29T12:00:46;20.80;99.90
27697;DHT22;15105;56.514;21.002;2022-07-29T12:03:24;20.70;99.90
27697;DHT22;15105;56.514;21.002;2022-07-29T12:06:02;20.80;99.90
27697;DHT22;15105;56.514;21.002;2022-07-29T12:08:29;20.80;99.90
27697;DHT22;15105;56.514;21.002;2022-07-29T12:10:57;20.80;99.90
27697;DHT22;15105;56.514;21.002;2022-07-29T12:13:38;20.80;99.90
27697;DHT22;15105;56.514;21.002;2022-07-29T12:16:06;20.60;99.90
27697;DHT22;15105;56.514;21.002;2022-07-29T12:21:09;20.60;99.90
27697;DHT22;15105;56.514;21.002;2022-07-29T12:23:38;20.60;99.90
27697;DHT22;15105;56.514;21.002;2022-07-29T12:26:06;20.60;99.90
27697;DHT22;15105;56.514;21.002;2022-07-29T12:28:37;20.60;99.90
27697;DHT22;15105;56.514;21.002;2022-07-29T12:31:05;20.50;99.90
27697;DHT22;15105;56.514;21.002;2022-07-29T12:33:34;20.60;99.90
27697;DHT22;15105;56.514;21.002;2022-07-29T12:36:02;20.60;99.90
27697;DHT22;15105;56.514;21.002;2022-07-29T12:38:37;20.70;99.90
27697;DHT22;15105;56.514;21.002;2022-07-29T12:41:07;20.60;99.90
27697;DHT22;15105;56.514;21.002;2022-07-29T12:43:35;20.70;99.90
27697;DHT22;15105;56.514;21.002;2022-07-29T12:46:13;20.70;99.90
27697;DHT22;15105;56.514;21.002;2022-07-29T12:48:42;20.70;99.90
27697;DHT22;15105;56.514;21.002;2022-07-29T12:51:10;20.60;99.90
27697;DHT22;15105;56.514;21.002;2022-07-29T12:53:39;20.50;99.90
27697;DHT22;15105;56.514;21.002;2022-07-29T12:56:15;20.50;99.90
27697;DHT22;15105;56.514;21.002;2022-07-29T12:59:20;20.50;99.90
27697;DHT22;15105;56.514;21.002;2022-07-29T13:01:50;20.40;99.90
27697;DHT22;15105;56.514;21.002;2022-07-29T13:04:32;20.40;99.90
27697;DHT22;15105;56.514;21.002;2022-07-29T13:07:04;20.50;99.90
27697;DHT22;15105;56.514;21.002;2022-07-29T13:09:44;20.60;99.90
27697;DHT22;15105;56.514;21.002;2022-07-29T13:12:18;20.60;99.90
27697;DHT22;15105;56.514;21.002;2022-07-29T13:14:47;20.70;99.90
27697;DHT22;15105;56.514;21.002;2022-07-29T13:17:21;20.80;99.90
27697;DHT22;15105;56.514;21.002;2022-07-29T13:20:08;20.80;99.90
27697;DHT22;15105;56.514;21.002;2022-07-29T13:22:39;20.70;99.90
27697;DHT22;15105;56.514;21.002;2022-07-29T13:25:07;20.80;99.90
27697;DHT22;15105;56.514;21.002;2022-07-29T13:27:37;20.80;99.90
27697;DHT22;15105;56.514;21.002;2022-07-29T13:30:07;20.80;99.90
27697;DHT22;15105;56.514;21.002;2022-07-29T13:32:35;20.70;99.90
27697;DHT22;15105;56.514;21.002;2022-07-29T13:35:06;20.80;99.90
27697;DHT22;15105;56.514;21.002;2022-07-29T13:37:34;20.70;99.90
27697;DHT22;15105;56.514;21.002;2022-07-29T13:40:07;20.70;99.90
27697;DHT22;15105;56.514;21.002;2022-07-29T13:42:34;20.70;99.90
27697;DHT22;15105;56.514;21.002;2022-07-29T13:45:02;20.60;99.90
27697;DHT22;15105;56.514;21.002;2022-07-29T13:47:29;20.70;99.90
27697;DHT22;15105;56.514;21.002;2022-07-29T13:49:59;20.70;99.90
27697;DHT22;15105;56.514;21.002;2022-07-29T13:52:27;20.70;99.90
27697;DHT22;15105;56.514;21.002;2022-07-29T13:54:54;20.70;99.90
27697;DHT22;15105;56.514;21.002;2022-07-29T13:57:21;20.60;99.90
27697;DHT22;15105;56.514;21.002;2022-07-29T13:59:48;20.60;99.90
27697;DHT22;15105;56.514;21.002;2022-07-29T14:02:20;20.50;99.90
27697;DHT22;15105;56.514;21.002;2022-07-29T14:04:52;20.60;99.90
27697;DHT22;15105;56.514;21.002;2022-07-29T14:07:23;20.60;99.90
27697;DHT22;15105;56.514;21.002;2022-07-29T14:09:50;20.60;99.90
27697;DHT22;15105;56.514;21.002;2022-07-29T14:12:19;20.70;99.90
27697;DHT22;15105;56.514;21.002;2022-07-29T14:14:46;20.70;99.90
27697;DHT22;15105;56.514;21.002;2022-07-29T14:17:16;20.80;99.90
27697;DHT22;15105;56.514;21.002;2022-07-29T14:19:42;20.60;99.90
27697;DHT22;15105;56.514;21.002;2022-07-29T14:22:09;20.60;99.90
27697;DHT22;15105;56.514;21.002;2022-07-29T14:24:37;20.50;99.90
27697;DHT22;15105;56.514;21.002;2022-07-29T14:27:06;20.40;99.90
27697;DHT22;15105;56.514;21.002;2022-07-29T14:29:33;20.30;99.90
27697;DHT22;15105;56.514;21.002;2022-07-29T14:32:08;20.30;99.90
27697;DHT22;15105;56.514;21.002;2022-07-29T14:34:37;20.30;99.90
27697;DHT22;15105;56.514;21.002;2022-07-29T14:37:05;20.30;99.90
27697;DHT22;15105;56.514;21.002;2022-07-29T14:39:33;20.20;99.90
27697;DHT22;15105;56.514;21.002;2022-07-29T14:42:08;20.30;99.90
27697;DHT22;15105;56.514;21.002;2022-07-29T14:44:55;20.30;99.90
27697;DHT22;15105;56.514;21.002;2022-07-29T14:47:22;20.30;99.90
27697;DHT22;15105;56.514;21.002;2022-07-29T14:49:50;20.30;99.90
27697;DHT22;15105;56.514;21.002;2022-07-29T14:52:17;20.20;99.90
27697;DHT22;15105;56.514;21.002;2022-07-29T14:54:44;20.10;99.90
27697;DHT22;15105;56.514;21.002;2022-07-29T14:57:11;20.10;99.90
27697;DHT22;15105;56.514;21.002;2022-07-29T14:59:38;20.10;99.90
27697;DHT22;15105;56.514;21.002;2022-07-29T15:02:05;20.20;99.90
27697;DHT22;15105;56.514;21.002;2022-07-29T15:04:33;20.30;99.90
27697;DHT22;15105;56.514;21.002;2022-07-29T15:07:00;20.20;99.90
27697;DHT22;15105;56.514;21.002;2022-07-29T15:09:27;20.10;99.90
27697;DHT22;15105;56.514;21.002;2022-07-29T15:11:54;20.10;99.90
27697;DHT22;15105;56.514;21.002;2022-07-29T15:14:22;20.00;99.90
27697;DHT22;15105;56.514;21.002;2022-07-29T15:16:49;20.00;99.90
27697;DHT22;15105;56.514;21.002;2022-07-29T15:19:18;20.00;99.90
27697;DHT22;15105;56.514;21.002;2022-07-29T15:21:45;20.10;99.90
27697;DHT22;15105;56.514;21.002;2022-07-29T15:24:18;19.90;99.90
27697;DHT22;15105;56.514;21.002;2022-07-29T15:26:46;19.90;99.90
27697;DHT22;15105;56.514;21.002;2022-07-29T15:29:14;19.90;99.90
27697;DHT22;15105;56.514;21.002;2022-07-29T15:31:42;19.80;99.90
27697;DHT22;15105;56.514;21.002;2022-07-29T15:34:09;19.70;99.90
27697;DHT22;15105;56.514;21.002;2022-07-29T15:36:36;19.60;99.90
27697;DHT22;15105;56.514;21.002;2022-07-29T15:39:20;19.70;99.90
27697;DHT22;15105;56.514;21.002;2022-07-29T15:41:48;19.70;99.90
27697;DHT22;15105;56.514;21.002;2022-07-29T15:44:15;19.60;99.90
27697;DHT22;15105;56.514;21.002;2022-07-29T15:46:42;19.60;99.90
27697;DHT22;15105;56.514;21.002;2022-07-29T15:49:32;19.50;99.90
27697;DHT22;15105;56.514;21.002;2022-07-29T15:52:18;19.50;99.90
27697;DHT22;15105;56.514;21.002;2022-07-29T15:54:53;19.50;99.90
27697;DHT22;15105;56.514;21.002;2022-07-29T15:57:21;19.40;99.90
27697;DHT22;15105;56.514;21.002;2022-07-29T15:59:48;19.50;99.90
27697;DHT22;15105;56.514;21.002;2022-07-29T16:02:16;19.50;99.90
27697;DHT22;15105;56.514;21.002;2022-07-29T16:04:44;19.50;99.90
27697;DHT22;15105;56.514;21.002;2022-07-29T16:07:11;19.40;99.90
27697;DHT22;15105;56.514;21.002;2022-07-29T16:09:40;19.40;99.90
27697;DHT22;15105;56.514;21.002;2022-07-29T16:12:07;19.40;99.90
27697;DHT22;15105;56.514;21.002;2022-07-29T16:14:41;19.30;99.90
27697;DHT22;15105;56.514;21.002;2022-07-29T16:17:09;19.40;99.90
27697;DHT22;15105;56.514;21.002;2022-07-29T16:19:41;19.30;99.90
27697;DHT22;15105;56.514;21.002;2022-07-29T16:22:15;19.30;99.90
27697;DHT22;15105;56.514;21.002;2022-07-29T16:24:42;19.30;99.90
27697;DHT22;15105;56.514;21.002;2022-07-29T16:27:09;19.20;99.90
27697;DHT22;15105;56.514;21.002;2022-07-29T16:29:36;19.20;99.90
27697;DHT22;15105;56.514;21.002;2022-07-29T16:32:04;19.20;99.90
27697;DHT22;15105;56.514;21.002;2022-07-29T16:34:32;19.20;99.90
27697;DHT22;15105;56.514;21.002;2022-07-29T16:36:59;19.20;99.90
27697;DHT22;15105;56.514;21.002;2022-07-29T16:39:26;19.30;99.90